sensor_id;sensor_type;location;lat;lon;timestamp;pressure;altitude;pressure_sealevel;temperature;humidity
29433;BME280;16405;53.964;13.448;2023-02-11T00:01:37;102034.16;;;3.70;88.55
29433;BME280;16405;53.964;13.448;2023-02-11T00:04:04;102060.19;;;3.73;88.40
29433;BME280;16405;53.964;13.448;2023-02-11T00:06:32;102057.59;;;3.73;88.39
29433;BME280;16405;53.964;13.448;2023-02-11T00:08:59;102067.16;;;3.74;88.58
29433;BME280;16405;53.964;13.448;2023-02-11T00:11:28;102081.91;;;3.74;88.79
29433;BME280;16405;53.964;13.448;2023-02-11T00:13:59;102088.00;;;3.73;88.90
29433;BME280;16405;53.964;13.448;2023-02-11T00:16:26;102091.47;;;3.73;88.80
29433;BME280;16405;53.964;13.448;2023-02-11T00:18:55;102078.44;;;3.73;89.17
29433;BME280;16405;53.964;13.448;2023-02-11T00:21:25;102061.94;;;3.71;89.26
29433;BME280;16405;53.964;13.448;2023-02-11T00:23:52;102076.72;;;3.72;89.26
29433;BME280;16405;53.964;13.448;2023-02-11T00:26:21;102063.69;;;3.72;89.57
29433;BME280;16405;53.964;13.448;2023-02-11T00:28:51;102067.16;;;3.73;89.36
29433;BME280;16405;53.964;13.448;2023-02-11T00:31:19;102075.81;;;3.73;89.85
29433;BME280;16405;53.964;13.448;2023-02-11T00:33:46;102076.69;;;3.74;89.74
29433;BME280;16405;53.964;13.448;2023-02-11T00:36:23;102075.84;;;3.72;90.16
29433;BME280;16405;53.964;13.448;2023-02-11T00:38:50;102076.69;;;3.70;90.16
29433;BME280;16405;53.964;13.448;2023-02-11T00:41:19;102079.28;;;3.70;90.21
29433;BME280;16405;53.964;13.448;2023-02-11T00:43:45;102071.47;;;3.70;90.50
29433;BME280;16405;53.964;13.448;2023-02-11T00:46:12;102066.25;;;3.69;90.65
29433;BME280;16405;53.964;13.448;2023-02-11T00:48:39;102076.69;;;3.69;90.67
29433;BME280;16405;53.964;13.448;2023-02-11T00:51:05;102074.09;;;3.70;90.70
29433;BME280;16405;53.964;13.448;2023-02-11T00:53:40;102067.16;;;3.69;91.31
29433;BME280;16405;53.964;13.448;2023-02-11T00:56:07;102061.06;;;3.67;91.38
29433;BME280;16405;53.964;13.448;2023-02-11T00:58:32;102059.31;;;3.68;91.37
29433;BME280;16405;53.964;13.448;2023-02-11T01:00:58;102052.38;;;3.68;91.46
29433;BME280;16405;53.964;13.448;2023-02-11T01:03:32;102040.22;;;3.69;91.36
29433;BME280;16405;53.964;13.448;2023-02-11T01:05:58;102041.09;;;3.71;92.11
29433;BME280;16405;53.964;13.448;2023-02-11T01:08:24;102041.97;;;3.72;92.00
29433;BME280;16405;53.964;13.448;2023-02-11T01:11:06;102042.81;;;3.69;91.98
29433;BME280;16405;53.964;13.448;2023-02-11T01:13:37;102041.97;;;3.70;92.52
29433;BME280;16405;53.964;13.448;2023-02-11T01:16:07;102048.91;;;3.71;92.81
29433;BME280;16405;53.964;13.448;2023-02-11T01:18:33;102046.28;;;3.66;92.69
29433;BME280;16405;53.964;13.448;2023-02-11T01:21:05;102049.75;;;3.67;92.75
29433;BME280;16405;53.964;13.448;2023-02-11T01:23:30;102061.94;;;3.69;93.41
29433;BME280;16405;53.964;13.448;2023-02-11T01:25:56;102058.47;;;3.72;93.70
29433;BME280;16405;53.964;13.448;2023-02-11T01:28:26;102056.72;;;3.73;93.69
29433;BME280;16405;53.964;13.448;2023-02-11T01:30:58;102069.78;;;3.74;93.97
29433;BME280;16405;53.964;13.448;2023-02-11T01:33:24;102062.81;;;3.73;94.00
29433;BME280;16405;53.964;13.448;2023-02-11T01:35:50;102061.94;;;3.73;94.23
29433;BME280;16405;53.964;13.448;2023-02-11T01:38:24;102054.97;;;3.73;94.54
29433;BME280;16405;53.964;13.448;2023-02-11T01:41:03;102051.53;;;3.74;95.05
29433;BME280;16405;53.964;13.448;2023-02-11T01:43:42;102048.03;;;3.74;94.93
29433;BME280;16405;53.964;13.448;2023-02-11T01:49:06;102035.91;;;3.74;95.44
29433;BME280;16405;53.964;13.448;2023-02-11T01:51:43;102031.53;;;3.73;95.75
29433;BME280;16405;53.964;13.448;2023-02-11T01:54:16;102035.03;;;3.72;96.01
29433;BME280;16405;53.964;13.448;2023-02-11T01:57:04;102024.59;;;3.72;96.24
29433;BME280;16405;53.964;13.448;2023-02-11T02:00:29;102008.09;;;3.73;96.55
29433;BME280;16405;53.964;13.448;2023-02-11T02:03:07;102006.38;;;3.72;96.78
29433;BME280;16405;53.964;13.448;2023-02-11T02:05:42;101999.41;;;3.73;96.49
29433;BME280;16405;53.964;13.448;2023-02-11T02:08:18;101987.28;;;3.76;96.86
29433;BME280;16405;53.964;13.448;2023-02-11T02:10:49;101972.50;;;3.77;97.17
29433;BME280;16405;53.964;13.448;2023-02-11T02:13:23;101970.78;;;3.74;97.36
29433;BME280;16405;53.964;13.448;2023-02-11T02:16:13;101974.22;;;3.73;97.90
29433;BME280;16405;53.964;13.448;2023-02-11T02:18:47;101972.50;;;3.75;98.43
29433;BME280;16405;53.964;13.448;2023-02-11T02:31:28;101982.91;;;3.74;99.34
29433;BME280;16405;53.964;13.448;2023-02-11T02:34:08;101978.59;;;3.79;99.80
29433;BME280;16405;53.964;13.448;2023-02-11T02:36:54;101973.38;;;3.83;99.67
29433;BME280;16405;53.964;13.448;2023-02-11T02:39:29;101975.13;;;3.86;99.98
29433;BME280;16405;53.964;13.448;2023-02-11T02:41:56;101975.97;;;3.83;100.00
29433;BME280;16405;53.964;13.448;2023-02-11T02:44:23;101969.88;;;3.84;100.00
29433;BME280;16405;53.964;13.448;2023-02-11T02:46:49;101968.19;;;3.89;100.00
29433;BME280;16405;53.964;13.448;2023-02-11T02:49:23;101978.63;;;3.91;100.00
29433;BME280;16405;53.964;13.448;2023-02-11T02:52:30;101974.28;;;3.93;100.00
29433;BME280;16405;53.964;13.448;2023-02-11T03:03:34;101966.44;;;3.96;100.00
29433;BME280;16405;53.964;13.448;2023-02-11T03:06:32;101951.66;;;3.97;100.00
29433;BME280;16405;53.964;13.448;2023-02-11T03:09:27;101964.72;;;4.03;100.00
29433;BME280;16405;53.964;13.448;2023-02-11T03:11:57;101958.59;;;4.04;100.00
29433;BME280;16405;53.964;13.448;2023-02-11T03:14:29;101962.97;;;4.06;100.00
29433;BME280;16405;53.964;13.448;2023-02-11T03:16:58;101956.91;;;4.09;100.00
29433;BME280;16405;53.964;13.448;2023-02-11T03:19:43;101964.72;;;4.10;100.00
29433;BME280;16405;53.964;13.448;2023-02-11T03:23:00;101973.41;;;4.11;100.00
29433;BME280;16405;53.964;13.448;2023-02-11T03:25:35;101953.41;;;4.13;100.00
29433;BME280;16405;53.964;13.448;2023-02-11T03:31:25;101936.91;;;4.16;100.00
29433;BME280;16405;53.964;13.448;2023-02-11T03:34:03;101923.88;;;4.17;100.00
29433;BME280;16405;53.964;13.448;2023-02-11T03:36:51;101916.91;;;4.15;100.00
29433;BME280;16405;53.964;13.448;2023-02-11T03:39:25;101902.16;;;4.15;100.00
29433;BME280;16405;53.964;13.448;2023-02-11T03:41:55;101897.81;;;4.17;100.00
29433;BME280;16405;53.964;13.448;2023-02-11T03:44:26;101896.94;;;4.20;100.00
29433;BME280;16405;53.964;13.448;2023-02-11T03:46:57;101888.22;;;4.22;100.00
29433;BME280;16405;53.964;13.448;2023-02-11T03:49:26;101893.44;;;4.25;100.00
29433;BME280;16405;53.964;13.448;2023-02-11T03:51:53;101888.22;;;4.27;100.00
29433;BME280;16405;53.964;13.448;2023-02-11T03:54:29;101882.13;;;4.26;100.00
29433;BME280;16405;53.964;13.448;2023-02-11T03:56:58;101885.63;;;4.28;100.00
29433;BME280;16405;53.964;13.448;2023-02-11T03:59:28;101876.03;;;4.29;100.00
29433;BME280;16405;53.964;13.448;2023-02-11T04:01:53;101882.09;;;4.34;100.00
29433;BME280;16405;53.964;13.448;2023-02-11T04:04:19;101875.16;;;4.36;100.00
29433;BME280;16405;53.964;13.448;2023-02-11T04:06:45;101892.56;;;4.39;100.00
29433;BME280;16405;53.964;13.448;2023-02-11T04:09:12;101890.81;;;4.41;100.00
29433;BME280;16405;53.964;13.448;2023-02-11T04:11:39;101882.09;;;4.42;100.00
29433;BME280;16405;53.964;13.448;2023-02-11T04:14:10;101882.97;;;4.45;100.00
29433;BME280;16405;53.964;13.448;2023-02-11T04:16:36;101884.69;;;4.51;100.00
29433;BME280;16405;53.964;13.448;2023-02-11T04:19:02;101879.47;;;4.52;100.00
29433;BME280;16405;53.964;13.448;2023-02-11T04:21:28;101871.63;;;4.54;100.00
29433;BME280;16405;53.964;13.448;2023-02-11T04:23:53;101863.78;;;4.56;100.00
29433;BME280;16405;53.964;13.448;2023-02-11T04:26:22;101854.25;;;4.56;100.00
29433;BME280;16405;53.964;13.448;2023-02-11T04:28:51;101852.50;;;4.55;100.00
29433;BME280;16405;53.964;13.448;2023-02-11T04:31:17;101847.28;;;4.58;100.00
29433;BME280;16405;53.964;13.448;2023-02-11T04:33:42;101847.25;;;4.61;100.00
29433;BME280;16405;53.964;13.448;2023-02-11T04:36:08;101855.97;;;4.60;100.00
29433;BME280;16405;53.964;13.448;2023-02-11T04:38:34;101855.94;;;4.63;100.00
29433;BME280;16405;53.964;13.448;2023-02-11T04:41:09;101852.47;;;4.61;100.00
29433;BME280;16405;53.964;13.448;2023-02-11T04:43:34;101854.19;;;4.65;100.00
29433;BME280;16405;53.964;13.448;2023-02-11T04:46:01;101847.22;;;4.66;100.00
29433;BME280;16405;53.964;13.448;2023-02-11T04:48:27;101831.59;;;4.67;100.00
29433;BME280;16405;53.964;13.448;2023-02-11T04:51:01;101829.84;;;4.69;100.00
29433;BME280;16405;53.964;13.448;2023-02-11T04:53:27;101828.09;;;4.70;100.00
29433;BME280;16405;53.964;13.448;2023-02-11T04:55:53;101826.34;;;4.73;100.00
29433;BME280;16405;53.964;13.448;2023-02-11T04:58:26;101821.94;;;4.77;100.00
29433;BME280;16405;53.964;13.448;2023-02-11T05:00:52;101806.34;;;4.76;100.00
29433;BME280;16405;53.964;13.448;2023-02-11T05:03:17;101799.38;;;4.76;100.00
29433;BME280;16405;53.964;13.448;2023-02-11T05:05:43;101797.63;;;4.77;100.00
29433;BME280;16405;53.964;13.448;2023-02-11T05:08:10;101790.66;;;4.79;100.00
29433;BME280;16405;53.964;13.448;2023-02-11T05:10:38;101795.00;;;4.80;100.00
29433;BME280;16405;53.964;13.448;2023-02-11T05:13:07;101801.09;;;4.76;100.00
29433;BME280;16405;53.964;13.448;2023-02-11T05:15:33;101806.31;;;4.79;100.00
29433;BME280;16405;53.964;13.448;2023-02-11T05:17:58;101807.16;;;4.82;100.00
29433;BME280;16405;53.964;13.448;2023-02-11T05:20:24;101799.34;;;4.81;100.00
29433;BME280;16405;53.964;13.448;2023-02-11T05:22:50;101796.72;;;4.84;100.00
29433;BME280;16405;53.964;13.448;2023-02-11T05:25:25;101808.03;;;4.81;100.00
29433;BME280;16405;53.964;13.448;2023-02-11T05:27:50;101799.34;;;4.81;100.00
29433;BME280;16405;53.964;13.448;2023-02-11T05:30:16;101799.34;;;4.84;100.00
29433;BME280;16405;53.964;13.448;2023-02-11T05:32:42;101793.25;;;4.82;100.00
29433;BME280;16405;53.964;13.448;2023-02-11T05:35:10;101781.94;;;4.84;100.00
29433;BME280;16405;53.964;13.448;2023-02-11T05:37:36;101787.13;;;4.86;100.00
29433;BME280;16405;53.964;13.448;2023-02-11T05:40:03;101777.56;;;4.86;100.00
29433;BME280;16405;53.964;13.448;2023-02-11T05:42:29;101767.13;;;4.85;100.00
29433;BME280;16405;53.964;13.448;2023-02-11T05:44:54;101767.09;;;4.88;100.00
29433;BME280;16405;53.964;13.448;2023-02-11T05:47:20;101752.28;;;4.91;100.00
29433;BME280;16405;53.964;13.448;2023-02-11T05:49:46;101749.66;;;4.96;100.00
29433;BME280;16405;53.964;13.448;2023-02-11T05:52:12;101744.44;;;4.96;100.00
29433;BME280;16405;53.964;13.448;2023-02-11T05:54:41;101727.91;;;4.96;100.00
29433;BME280;16405;53.964;13.448;2023-02-11T05:57:07;101725.25;;;5.02;100.00
29433;BME280;16405;53.964;13.448;2023-02-11T05:59:32;101726.13;;;5.01;100.00
29433;BME280;16405;53.964;13.448;2023-02-11T06:01:58;101742.63;;;5.06;100.00
29433;BME280;16405;53.964;13.448;2023-02-11T06:04:24;101755.69;;;5.06;100.00
29433;BME280;16405;53.964;13.448;2023-02-11T06:06:50;101753.94;;;5.08;100.00
29433;BME280;16405;53.964;13.448;2023-02-11T06:09:18;101749.56;;;5.05;100.00
29433;BME280;16405;53.964;13.448;2023-02-11T06:11:46;101759.13;;;5.11;100.00
29433;BME280;16405;53.964;13.448;2023-02-11T06:14:12;101756.47;;;5.16;100.00
29433;BME280;16405;53.964;13.448;2023-02-11T06:16:39;101760.78;;;5.18;100.00
29433;BME280;16405;53.964;13.448;2023-02-11T06:19:05;101761.69;;;5.19;100.00
29433;BME280;16405;53.964;13.448;2023-02-11T06:21:30;101771.22;;;5.20;100.00
29433;BME280;16405;53.964;13.448;2023-02-11T06:24:05;101769.47;;;5.20;100.00
29433;BME280;16405;53.964;13.448;2023-02-11T06:26:31;101779.03;;;5.26;100.00
29433;BME280;16405;53.964;13.448;2023-02-11T06:29:01;101782.50;;;5.29;100.00
29433;BME280;16405;53.964;13.448;2023-02-11T06:31:29;101789.38;;;5.35;100.00
29433;BME280;16405;53.964;13.448;2023-02-11T06:33:55;101780.69;;;5.36;100.00
29433;BME280;16405;53.964;13.448;2023-02-11T06:36:21;101771.97;;;5.37;100.00
29433;BME280;16405;53.964;13.448;2023-02-11T06:38:48;101767.56;;;5.44;100.00
29433;BME280;16405;53.964;13.448;2023-02-11T06:41:25;101763.19;;;5.46;100.00
29433;BME280;16405;53.964;13.448;2023-02-11T06:43:52;101750.97;;;5.46;100.00
29433;BME280;16405;53.964;13.448;2023-02-11T06:46:18;101752.72;;;5.46;100.00
29433;BME280;16405;53.964;13.448;2023-02-11T06:48:53;101750.16;;;5.44;100.00
29433;BME280;16405;53.964;13.448;2023-02-11T06:51:19;101744.00;;;5.48;100.00
29433;BME280;16405;53.964;13.448;2023-02-11T06:53:45;101726.53;;;5.55;100.00
29433;BME280;16405;53.964;13.448;2023-02-11T06:56:18;101728.25;;;5.58;100.00
29433;BME280;16405;53.964;13.448;2023-02-11T06:58:45;101726.47;;;5.61;100.00
29433;BME280;16405;53.964;13.448;2023-02-11T07:01:14;101739.50;;;5.63;100.00
29433;BME280;16405;53.964;13.448;2023-02-11T07:03:45;101750.81;;;5.63;100.00
29433;BME280;16405;53.964;13.448;2023-02-11T07:06:18;101761.28;;;5.65;100.00
29433;BME280;16405;53.964;13.448;2023-02-11T07:08:54;101766.47;;;5.68;100.00
29433;BME280;16405;53.964;13.448;2023-02-11T07:11:23;101762.94;;;5.72;100.00
29433;BME280;16405;53.964;13.448;2023-02-11T07:14:06;101783.84;;;5.75;100.00
29433;BME280;16405;53.964;13.448;2023-02-11T07:16:35;101800.31;;;5.79;100.00
29433;BME280;16405;53.964;13.448;2023-02-11T07:19:02;101788.09;;;5.81;100.00
29433;BME280;16405;53.964;13.448;2023-02-11T07:21:28;101793.34;;;5.82;100.00
29433;BME280;16405;53.964;13.448;2023-02-11T07:23:54;101815.94;;;5.88;100.00
29433;BME280;16405;53.964;13.448;2023-02-11T07:26:22;101835.97;;;5.89;100.00
29433;BME280;16405;53.964;13.448;2023-02-11T07:28:57;101836.00;;;5.83;100.00
29433;BME280;16405;53.964;13.448;2023-02-11T07:31:28;101843.75;;;5.93;100.00
29433;BME280;16405;53.964;13.448;2023-02-11T07:33:57;101846.41;;;5.97;100.00
29433;BME280;16405;53.964;13.448;2023-02-11T07:36:25;101843.72;;;6.01;100.00
29433;BME280;16405;53.964;13.448;2023-02-11T07:38:51;101850.66;;;6.04;100.00
29433;BME280;16405;53.964;13.448;2023-02-11T07:41:21;101849.75;;;6.08;100.00
29433;BME280;16405;53.964;13.448;2023-02-11T07:43:47;101842.88;;;6.01;100.00
29433;BME280;16405;53.964;13.448;2023-02-11T07:46:22;101849.75;;;6.08;100.00
29433;BME280;16405;53.964;13.448;2023-02-11T07:48:51;101831.47;;;6.06;100.00
29433;BME280;16405;53.964;13.448;2023-02-11T07:51:21;101830.56;;;6.09;100.00
29433;BME280;16405;53.964;13.448;2023-02-11T07:53:58;101839.34;;;6.03;100.00
29433;BME280;16405;53.964;13.448;2023-02-11T07:56:24;101834.13;;;6.02;100.00
29433;BME280;16405;53.964;13.448;2023-02-11T07:58:50;101830.72;;;5.97;100.00
29433;BME280;16405;53.964;13.448;2023-02-11T08:01:25;101825.44;;;5.98;100.00
29433;BME280;16405;53.964;13.448;2023-02-11T08:03:54;101830.66;;;6.00;100.00
29433;BME280;16405;53.964;13.448;2023-02-11T08:06:33;101848.94;;;6.03;100.00
29433;BME280;16405;53.964;13.448;2023-02-11T08:09:12;101836.75;;;6.02;100.00
29433;BME280;16405;53.964;13.448;2023-02-11T08:11:42;101821.09;;;5.99;100.00
29433;BME280;16405;53.964;13.448;2023-02-11T08:14:11;101829.78;;;6.01;100.00
29433;BME280;16405;53.964;13.448;2023-02-11T08:16:38;101823.72;;;5.95;100.00
29433;BME280;16405;53.964;13.448;2023-02-11T08:19:15;101849.88;;;5.97;100.00
29433;BME280;16405;53.964;13.448;2023-02-11T08:21:42;101855.09;;;5.99;100.00
29433;BME280;16405;53.964;13.448;2023-02-11T08:24:16;101861.19;;;5.93;100.00
29433;BME280;16405;53.964;13.448;2023-02-11T08:26:42;101875.13;;;5.98;100.00
29433;BME280;16405;53.964;13.448;2023-02-11T08:29:12;101876.00;;;5.95;100.00
29433;BME280;16405;53.964;13.448;2023-02-11T08:31:51;101866.41;;;5.96;100.00
29433;BME280;16405;53.964;13.448;2023-02-11T08:34:23;101869.00;;;6.01;100.00
29433;BME280;16405;53.964;13.448;2023-02-11T08:36:52;101878.53;;;6.06;100.00
29433;BME280;16405;53.964;13.448;2023-02-11T08:39:21;101875.91;;;6.08;100.00
29433;BME280;16405;53.964;13.448;2023-02-11T08:41:55;101868.88;;;6.13;100.00
29433;BME280;16405;53.964;13.448;2023-02-11T08:44:22;101862.78;;;6.11;100.00
29433;BME280;16405;53.964;13.448;2023-02-11T08:46:49;101840.97;;;6.15;100.00
29433;BME280;16405;53.964;13.448;2023-02-11T08:49:16;101853.13;;;6.22;100.00
29433;BME280;16405;53.964;13.448;2023-02-11T08:51:42;101864.38;;;6.26;100.00
29433;BME280;16405;53.964;13.448;2023-02-11T08:54:09;101873.94;;;6.31;100.00
29433;BME280;16405;53.964;13.448;2023-02-11T08:56:36;101882.59;;;6.36;100.00
29433;BME280;16405;53.964;13.448;2023-02-11T08:59:02;101886.06;;;6.39;100.00
29433;BME280;16405;53.964;13.448;2023-02-11T09:01:36;101879.91;;;6.41;100.00
29433;BME280;16405;53.964;13.448;2023-02-11T09:04:02;101879.03;;;6.44;100.00
29433;BME280;16405;53.964;13.448;2023-02-11T09:06:29;101875.47;;;6.51;100.00
29433;BME280;16405;53.964;13.448;2023-02-11T09:08:59;101893.69;;;6.58;100.00
29433;BME280;16405;53.964;13.448;2023-02-11T09:11:33;101899.75;;;6.62;100.00
29433;BME280;16405;53.964;13.448;2023-02-11T09:14:00;101888.38;;;6.65;100.00
29433;BME280;16405;53.964;13.448;2023-02-11T09:16:29;101876.13;;;6.70;100.00
29433;BME280;16405;53.964;13.448;2023-02-11T09:19:03;101864.66;;;6.78;100.00
29433;BME280;16405;53.964;13.448;2023-02-11T09:21:30;101856.69;;;6.88;100.00
29433;BME280;16405;53.964;13.448;2023-02-11T09:23:58;101847.06;;;6.90;100.00
29433;BME280;16405;53.964;13.448;2023-02-11T09:26:30;101846.94;;;6.99;100.00
29433;BME280;16405;53.964;13.448;2023-02-11T09:28:57;101832.84;;;7.08;100.00
29433;BME280;16405;53.964;13.448;2023-02-11T09:31:26;101822.25;;;7.15;100.00
29433;BME280;16405;53.964;13.448;2023-02-11T09:34:03;101829.19;;;7.19;100.00
29433;BME280;16405;53.964;13.448;2023-02-11T09:36:34;101831.69;;;7.27;100.00
29433;BME280;16405;53.964;13.448;2023-02-11T09:39:10;101847.41;;;7.27;100.00
29433;BME280;16405;53.964;13.448;2023-02-11T09:44:40;101873.59;;;7.29;100.00
29433;BME280;16405;53.964;13.448;2023-02-11T09:47:32;101887.50;;;7.32;100.00
29433;BME280;16405;53.964;13.448;2023-02-11T09:50:19;101896.19;;;7.36;100.00
29433;BME280;16405;53.964;13.448;2023-02-11T09:53:19;101915.34;;;7.41;100.00
29433;BME280;16405;53.964;13.448;2023-02-11T09:55:55;101920.59;;;7.39;100.00
29433;BME280;16405;53.964;13.448;2023-02-11T09:58:29;101921.31;;;7.49;100.00
29433;BME280;16405;53.964;13.448;2023-02-11T10:13:24;101926.06;;;7.81;100.00
29433;BME280;16405;53.964;13.448;2023-02-11T10:22:30;101919.59;;;8.02;100.00
29433;BME280;16405;53.964;13.448;2023-02-11T10:24:58;101928.19;;;8.12;100.00
29433;BME280;16405;53.964;13.448;2023-02-11T10:27:34;101932.34;;;8.24;100.00
29433;BME280;16405;53.964;13.448;2023-02-11T10:30:31;101925.97;;;8.39;100.00
29433;BME280;16405;53.964;13.448;2023-02-11T10:33:40;101932.97;;;8.38;100.00
29433;BME280;16405;53.964;13.448;2023-02-11T10:36:11;101924.75;;;8.58;100.00
29433;BME280;16405;53.964;13.448;2023-02-11T10:38:43;101937.56;;;8.75;99.13
29433;BME280;16405;53.964;13.448;2023-02-11T10:41:19;101931.25;;;8.86;98.13
29433;BME280;16405;53.964;13.448;2023-02-11T10:43:48;101925.84;;;8.92;97.07
29433;BME280;16405;53.964;13.448;2023-02-11T10:46:32;101917.97;;;8.92;96.22
29433;BME280;16405;53.964;13.448;2023-02-11T10:49:04;101926.00;;;8.86;96.07
29433;BME280;16405;53.964;13.448;2023-02-11T10:51:32;101921.84;;;8.72;96.09
29433;BME280;16405;53.964;13.448;2023-02-11T10:54:16;101909.63;;;8.73;96.18
29433;BME280;16405;53.964;13.448;2023-02-11T10:56:57;101907.00;;;8.71;97.10
29433;BME280;16405;53.964;13.448;2023-02-11T11:02:04;101910.91;;;8.95;96.28
29433;BME280;16405;53.964;13.448;2023-02-11T11:04:55;101906.25;;;9.08;95.18
29433;BME280;16405;53.964;13.448;2023-02-11T11:07:29;101916.59;;;9.16;94.72
29433;BME280;16405;53.964;13.448;2023-02-11T11:10:43;101925.25;;;9.19;94.51
29433;BME280;16405;53.964;13.448;2023-02-11T11:13:31;101933.94;;;8.81;94.08
29433;BME280;16405;53.964;13.448;2023-02-11T11:16:34;101932.28;;;8.77;94.40
29433;BME280;16405;53.964;13.448;2023-02-11T11:24:32;101940.78;;;8.45;95.29
29433;BME280;16405;53.964;13.448;2023-02-11T11:27:03;101944.06;;;8.56;95.52
29433;BME280;16405;53.964;13.448;2023-02-11T11:29:58;101957.31;;;8.48;95.24
29433;BME280;16405;53.964;13.448;2023-02-11T11:32:30;101946.91;;;8.44;95.10
29433;BME280;16405;53.964;13.448;2023-02-11T11:35:06;101952.91;;;8.52;95.80
29433;BME280;16405;53.964;13.448;2023-02-11T11:37:42;101962.28;;;8.63;95.58
29433;BME280;16405;53.964;13.448;2023-02-11T11:40:32;101970.44;;;8.50;95.78
29433;BME280;16405;53.964;13.448;2023-02-11T11:45:55;101961.44;;;9.07;94.44
29433;BME280;16405;53.964;13.448;2023-02-11T11:48:36;101963.00;;;9.17;93.53
29433;BME280;16405;53.964;13.448;2023-02-11T11:51:10;101976.94;;;9.20;91.87
29433;BME280;16405;53.964;13.448;2023-02-11T11:53:58;101987.13;;;9.36;91.54
29433;BME280;16405;53.964;13.448;2023-02-11T11:56:40;101977.22;;;9.49;91.03
29433;BME280;16405;53.964;13.448;2023-02-11T11:59:15;101970.44;;;9.37;89.90
29433;BME280;16405;53.964;13.448;2023-02-11T12:08:22;101969.38;;;9.05;90.12
29433;BME280;16405;53.964;13.448;2023-02-11T12:11:30;101967.75;;;8.98;91.11
29433;BME280;16405;53.964;13.448;2023-02-11T12:20:18;101997.13;;;8.75;91.94
29433;BME280;16405;53.964;13.448;2023-02-11T12:23:01;101997.13;;;8.73;92.60
29433;BME280;16405;53.964;13.448;2023-02-11T12:29:22;101990.47;;;8.54;91.82
29433;BME280;16405;53.964;13.448;2023-02-11T12:31:52;101997.56;;;8.49;93.06
29433;BME280;16405;53.964;13.448;2023-02-11T12:34:51;101988.88;;;8.47;93.19
29433;BME280;16405;53.964;13.448;2023-02-11T12:40:24;102003.94;;;8.32;93.87
29433;BME280;16405;53.964;13.448;2023-02-11T12:43:21;102003.00;;;8.36;94.57
29433;BME280;16405;53.964;13.448;2023-02-11T12:46:03;101998.56;;;8.41;94.53
29433;BME280;16405;53.964;13.448;2023-02-11T12:52:26;102004.81;;;8.33;94.71
29433;BME280;16405;53.964;13.448;2023-02-11T12:55:03;102003.94;;;8.34;95.48
29433;BME280;16405;53.964;13.448;2023-02-11T12:57:37;102016.13;;;8.36;95.16
29433;BME280;16405;53.964;13.448;2023-02-11T13:03:45;102007.69;;;8.16;95.03
29433;BME280;16405;53.964;13.448;2023-02-11T13:06:14;102020.97;;;8.05;96.26
29433;BME280;16405;53.964;13.448;2023-02-11T13:08:49;102032.47;;;7.98;96.42
29433;BME280;16405;53.964;13.448;2023-02-11T13:11:38;101999.28;;;7.97;97.19
29433;BME280;16405;53.964;13.448;2023-02-11T13:14:36;102016.63;;;8.06;97.10
29433;BME280;16405;53.964;13.448;2023-02-11T13:17:19;102026.97;;;8.15;96.98
29433;BME280;16405;53.964;13.448;2023-02-11T13:20:04;102020.91;;;8.11;96.62
29433;BME280;16405;53.964;13.448;2023-02-11T13:22:47;102038.38;;;8.12;97.28
29433;BME280;16405;53.964;13.448;2023-02-11T13:25:41;102034.00;;;8.13;96.81
29433;BME280;16405;53.964;13.448;2023-02-11T13:31:01;102059.47;;;8.05;97.40
29433;BME280;16405;53.964;13.448;2023-02-11T13:33:41;102073.44;;;8.05;97.52
29433;BME280;16405;53.964;13.448;2023-02-11T13:39:18;102071.75;;;8.01;97.69
29433;BME280;16405;53.964;13.448;2023-02-11T13:41:40;102074.38;;;8.02;97.95
29433;BME280;16405;53.964;13.448;2023-02-11T13:47:04;102081.31;;;8.07;97.99
29433;BME280;16405;53.964;13.448;2023-02-11T13:49:38;102088.38;;;8.01;97.75
29433;BME280;16405;53.964;13.448;2023-02-11T13:52:28;102082.31;;;7.98;98.21
29433;BME280;16405;53.964;13.448;2023-02-11T13:55:20;102084.94;;;7.96;98.57
29433;BME280;16405;53.964;13.448;2023-02-11T14:06:12;102105.00;;;8.02;98.62
29433;BME280;16405;53.964;13.448;2023-02-11T14:19:39;102132.09;;;8.01;97.69
29433;BME280;16405;53.964;13.448;2023-02-11T14:22:28;102132.06;;;8.02;98.02
29433;BME280;16405;53.964;13.448;2023-02-11T14:25:02;102130.44;;;7.97;98.30
29433;BME280;16405;53.964;13.448;2023-02-11T14:28:10;102134.78;;;7.96;98.50
29433;BME280;16405;53.964;13.448;2023-02-11T14:37:35;102145.38;;;7.89;99.62
29433;BME280;16405;53.964;13.448;2023-02-11T14:40:38;102137.59;;;7.81;99.90
29433;BME280;16405;53.964;13.448;2023-02-11T14:43:18;102139.38;;;7.79;99.48
29433;BME280;16405;53.964;13.448;2023-02-11T14:45:53;102138.50;;;7.80;99.83
29433;BME280;16405;53.964;13.448;2023-02-11T14:48:27;102133.34;;;7.74;100.00
29433;BME280;16405;53.964;13.448;2023-02-11T14:51:30;102143.81;;;7.74;100.00
29433;BME280;16405;53.964;13.448;2023-02-11T14:54:22;102149.97;;;7.71;99.89
29433;BME280;16405;53.964;13.448;2023-02-11T14:57:13;102163.94;;;7.70;100.00
29433;BME280;16405;53.964;13.448;2023-02-11T15:00:05;102171.00;;;7.67;100.00
29433;BME280;16405;53.964;13.448;2023-02-11T15:02:38;102166.56;;;7.70;100.00
29433;BME280;16405;53.964;13.448;2023-02-11T15:05:22;102171.91;;;7.63;100.00
29433;BME280;16405;53.964;13.448;2023-02-11T15:08:02;102179.78;;;7.63;100.00
29433;BME280;16405;53.964;13.448;2023-02-11T15:10:36;102176.31;;;7.60;100.00
29433;BME280;16405;53.964;13.448;2023-02-11T15:13:07;102174.56;;;7.59;100.00
29433;BME280;16405;53.964;13.448;2023-02-11T15:15:34;102172.78;;;7.62;100.00